KMGM

Montgomery Regional (Dannelly Field) Airport

Montgomery, Alabama, USA
METAR KMGM 240153Z 19005KT 10SM CLR 25/23 A3005 RMK AO2 SLP173 T02500228
Observed Flight Rules
May-24 @ 01:53 UTC (10 minutes ago) Visual Flight Rules
Wind Visibility Clouds
190° at 5 knots 10 miles
  • Clear skies
Temperatures Readings
Current 25°C / 77°F
Dewpoint 23°C / 73°F
Humidity 89%
Altimeter 30.05" Hg
Pressure 1017.3 hPa
Elevation 63
METAR KMGM 240153Z 19005KT 10SM CLR 25/23 A3005 RMK AO2 SLP173 T02500228
Observed Flight Rules
May-24 @ 01:53 UTC
(10 minutes ago)
VFR
Wind Visibility
190° at 5 knots 10 miles
Clouds
  • Clear skies
Temperature Dewpoint
25°C / 77°F 23°C / 73°F
Humidity Altimeter Pressure
89% 30.05" Hg 1017.3 hPa